Weather at Gilgil Coulson Airport

Public forecast

Using degrees Celsius for public forecast. Weather courtesy of forecast.io.

Closest aviation weather report (METAR) to Gilgil Coulson Airport

Closest report is Nakuru Airport, 17.1 nm (31.6 km) NW.

2022/12/04 12:00 (retrieved 1 hour ago)

HKNK 041200Z 00000KT 9999 BKN024 22/14 RERA

Closest aviation forecast (TAF) to Gilgil Coulson Airport

Closest forecast is Nairobi Wilson Airport, 56.3 nm (104.3 km) SSE.

2022/12/04 12:09 (retrieved 57 minutes ago)

TAF HKNW 041100Z 0412/0512 07015KT 9999 BKN026 PROB30 TEMPO 0413/0417 -SHRA FEW022CB SCT023 BKN080 BECMG 0420/0423 04005KT BKN020 BECMG 0508/0511 BKN024